Terminal Aerodrome Forecast
Issued by NWS Sioux Falls, SD

Home | Current Version | Previous Version | Text Only | Print | Product List | Glossary On
Versions: 1 2 3 4 5 6 7 8 9 10 11 12 13 14 15 16 17 18 19 20 21 22 23
000
FTUS43 KFSD 241100
TAFFSD
TAF
KFSD 241140Z 2412/2512 14008KT P6SM BKN100
      TEMPO 2413/2416 5SM TSRA BKN050CB
     FM241700 16018G26KT P6SM SCT045 BKN150
     FM250200 15013KT P6SM BKN120
     FM250400 16016G23KT P6SM BKN100=

USA.gov is the U.S. government's official web portal to all federal, state and local government web resources and services.